Time;durP1;ratioP1;P1;durP2;ratioP2;P2;SDS_P1;SDS_P2;PMS_P1;PMS_P2;Temp;Humidity;BMP_temperature;BMP_pressure;BME280_temperature;BME280_humidity;BME280_pressure;Samples;Min_cycle;Max_cycle;Signal;HPM_P1;HPM_P2
2023/03/21 00:00:27;;;;;;;23.00;8.18;;;9.10;99.90;;;;;;5067138;28;20079;-79
2023/03/21 00:02:53;;;;;;;21.60;8.30;;;9.10;99.90;;;;;;5050466;28;20142;-78
2023/03/21 00:05:19;;;;;;;23.87;8.37;;;9.10;99.90;;;;;;5067282;28;20293;-78
2023/03/21 00:07:45;;;;;;;;;;;9.10;99.90;;;;;;5050374;28;20120;-78
2023/03/21 00:10:11;;;;;;;25.95;8.35;;;9.20;99.90;;;;;;5067269;28;20479;-78
2023/03/21 00:12:37;;;;;;;16.50;7.80;;;9.20;99.90;;;;;;5066981;28;20115;-78
2023/03/21 00:15:08;;;;;;;22.63;7.50;;;9.20;99.90;;;;;;5050639;28;20397;-78
2023/03/21 00:17:34;;;;;;;19.33;7.70;;;9.20;99.90;;;;;;5067192;28;20036;-78
2023/03/21 00:20:03;;;;;;;;;;;9.20;99.90;;;;;;5067139;28;20124;-78
2023/03/21 00:22:29;;;;;;;16.63;6.68;;;9.30;99.90;;;;;;5050484;28;19993;-78
2023/03/21 00:24:55;;;;;;;19.13;7.13;;;9.20;99.90;;;;;;5066780;28;20048;-78
2023/03/21 00:27:20;;;;;;;18.90;6.88;;;9.30;99.90;;;;;;5066921;28;20294;-78
2023/03/21 00:29:48;;;;;;;20.15;8.07;;;9.30;99.90;;;;;;5066455;28;20477;-78
2023/03/21 00:32:15;;;;;;;26.38;8.75;;;9.20;99.90;;;;;;5033568;28;20032;-78
2023/03/21 00:34:41;;;;;;;23.20;8.20;;;9.20;99.90;;;;;;5071288;28;20372;-78
2023/03/21 00:37:07;;;;;;;;;;;9.20;99.90;;;;;;5074092;28;20036;-78
2023/03/21 00:39:34;;;;;;;27.55;9.02;;;9.10;99.90;;;;;;5073414;28;19916;-78
2023/03/21 00:41:59;;;;;;;;;;;9.20;99.90;;;;;;5023788;28;20072;-77
2023/03/21 00:44:25;;;;;;;32.10;9.98;;;9.20;99.90;;;;;;5090649;28;19920;-77
2023/03/21 00:46:51;;;;;;;34.72;8.88;;;9.30;99.90;;;;;;5072994;28;20055;-78
2023/03/21 00:49:19;;;;;;;37.67;10.00;;;9.20;99.90;;;;;;5073363;28;20043;-78
2023/03/21 00:51:45;;;;;;;65.90;14.60;;;9.20;99.90;;;;;;5073161;28;20434;-78
2023/03/21 00:54:11;;;;;;;69.32;12.05;;;9.20;99.90;;;;;;5056517;28;20074;-78
2023/03/21 00:56:37;;;;;;;67.07;12.70;;;9.20;99.90;;;;;;5073455;28;20041;-78
2023/03/21 00:59:03;;;;;;;77.97;14.77;;;9.20;99.90;;;;;;5056078;28;20034;-78
2023/03/21 01:01:33;;;;;;;59.90;13.45;;;9.20;99.90;;;;;;5073155;28;21033;-78
2023/03/21 01:04:06;;;;;;;46.70;11.15;;;9.30;99.90;;;;;;5056259;28;20032;-78
2023/03/21 01:06:38;;;;;;;77.97;14.88;;;9.30;99.90;;;;;;5073397;28;20133;-78
2023/03/21 01:09:04;;;;;;;91.57;15.55;;;9.30;99.90;;;;;;5072771;28;20055;-78
2023/03/21 01:11:30;;;;;;;78.05;15.48;;;9.20;99.90;;;;;;5072971;28;20166;-78
2023/03/21 01:13:57;;;;;;;71.00;14.00;;;9.20;99.90;;;;;;5056220;28;20132;-78
2023/03/21 01:16:24;;;;;;;74.40;14.48;;;9.20;99.90;;;;;;5073352;28;20464;-78
2023/03/21 01:18:49;;;;;;;;;;;9.20;99.90;;;;;;5073447;28;20522;-78
2023/03/21 01:21:15;;;;;;;62.67;12.13;;;9.20;99.90;;;;;;5072925;28;19916;-78
2023/03/21 01:23:42;;;;;;;62.40;12.27;;;9.20;99.90;;;;;;5056547;28;20054;-78
2023/03/21 01:26:09;;;;;;;59.00;12.85;;;9.20;99.90;;;;;;5072762;28;20035;-78
2023/03/21 01:28:36;;;;;;;76.85;15.13;;;9.20;99.90;;;;;;5072859;28;20036;-78
2023/03/21 01:31:03;;;;;;;71.97;14.50;;;9.10;99.90;;;;;;5072538;28;20098;-78
2023/03/21 01:33:29;;;;;;;46.00;12.20;;;9.10;99.90;;;;;;5056227;28;20037;-78
2023/03/21 01:35:55;;;;;;;42.47;10.30;;;9.10;99.90;;;;;;5072489;28;20040;-77
2023/03/21 01:38:21;;;;;;;42.05;10.50;;;9.10;99.90;;;;;;5072740;28;20055;-78
2023/03/21 01:40:48;;;;;;;39.50;10.60;;;9.20;99.90;;;;;;5055673;28;20131;-78
2023/03/21 01:43:29;;;;;;;30.55;8.70;;;9.20;99.90;;;;;;5072675;28;20063;-79
2023/03/21 01:46:19;;;;;;;39.45;10.50;;;9.20;99.90;;;;;;5069958;28;20124;-79
2023/03/21 01:48:49;;;;;;;38.08;10.55;;;9.20;99.90;;;;;;5069867;28;20489;-79
2023/03/21 01:51:16;;;;;;;37.55;10.20;;;9.20;99.90;;;;;;5069294;28;20066;-79
2023/03/21 01:53:41;;;;;;;40.75;11.32;;;9.30;99.90;;;;;;5069511;28;20052;-79
2023/03/21 01:56:40;;;;;;;37.70;10.52;;;9.20;99.90;;;;;;5069141;28;20059;-79
2023/03/21 01:59:12;;;;;;;32.72;10.80;;;9.20;99.90;;;;;;5066068;28;20117;-79
2023/03/21 02:01:41;;;;;;;36.63;10.68;;;9.20;99.90;;;;;;5069700;28;20163;-79
2023/03/21 02:04:07;;;;;;;42.03;11.60;;;9.20;99.90;;;;;;5068828;28;20048;-77
2023/03/21 02:06:53;;;;;;;30.45;9.50;;;9.30;99.90;;;;;;5052807;28;20506;-79
2023/03/21 02:09:23;;;;;;;40.65;11.75;;;9.30;99.90;;;;;;5069316;28;20040;-79
2023/03/21 02:11:50;;;;;;;25.30;8.43;;;9.30;99.90;;;;;;5068963;28;20081;-79
2023/03/21 02:14:18;;;;;;;34.42;11.18;;;9.30;99.90;;;;;;5052643;28;20040;-79
2023/03/21 02:17:01;;;;;;;34.88;10.52;;;9.30;99.90;;;;;;5069214;28;20181;-79
2023/03/21 02:19:44;;;;;;;29.27;9.48;;;9.30;99.90;;;;;;5069323;28;20045;-79
2023/03/21 02:22:33;;;;;;;42.08;11.38;;;9.30;99.90;;;;;;5069021;28;20058;-79
2023/03/21 02:25:36;;;;;;;33.80;10.43;;;9.30;99.90;;;;;;5068474;28;20032;-79
2023/03/21 02:28:08;;;;;;;31.23;11.60;;;9.30;99.90;;;;;;5068570;28;20051;-79
2023/03/21 02:30:43;;;;;;;36.13;11.18;;;9.30;99.90;;;;;;5068892;28;20043;-79
2023/03/21 02:33:36;;;;;;;32.67;11.55;;;9.30;99.90;;;;;;5051613;28;20071;-79
2023/03/21 02:36:26;;;;;;;34.55;11.52;;;9.30;99.90;;;;;;5068893;28;20032;-79
2023/03/21 02:39:02;;;;;;;33.78;11.57;;;9.40;99.90;;;;;;5068323;28;20115;-77
2023/03/21 02:41:53;;;;;;;26.15;10.25;;;9.40;99.90;;;;;;5068390;28;20156;-77
2023/03/21 02:44:41;;;;;;;31.27;11.18;;;9.40;99.90;;;;;;5065904;28;20044;-77
2023/03/21 02:47:16;;;;;;;26.13;10.70;;;9.40;99.90;;;;;;5051576;28;20040;-78
2023/03/21 02:49:56;;;;;;;30.90;10.40;;;9.40;99.90;;;;;;5068845;28;20076;-78
2023/03/21 02:52:31;;;;;;;25.67;10.88;;;9.40;99.90;;;;;;5065979;28;20044;-78
2023/03/21 02:54:58;;;;;;;25.98;10.50;;;9.40;99.90;;;;;;5051669;28;20378;-78
2023/03/21 02:57:24;;;;;;;25.42;9.88;;;9.30;99.90;;;;;;5050615;28;20071;-78
2023/03/21 02:59:51;;;;;;;20.73;9.48;;;9.30;99.90;;;;;;5068471;28;20037;-79
2023/03/21 03:02:22;;;;;;;24.65;10.50;;;9.30;99.90;;;;;;5068280;28;20032;-78
2023/03/21 03:04:48;;;;;;;23.50;10.50;;;9.40;99.90;;;;;;5068475;28;20047;-78
2023/03/21 03:07:23;;;;;;;24.92;10.98;;;9.30;99.90;;;;;;5068441;28;20412;-78
2023/03/21 03:10:11;;;;;;;25.50;10.63;;;9.30;99.90;;;;;;5068177;28;20040;-78
2023/03/21 03:12:49;;;;;;;26.33;11.00;;;9.30;99.90;;;;;;5067892;28;20127;-78
2023/03/21 03:15:52;;;;;;;23.35;10.35;;;9.40;99.90;;;;;;5067925;28;20087;-77
2023/03/21 03:18:38;;;;;;;23.25;10.70;;;9.40;99.90;;;;;;5067819;28;20119;-78
2023/03/21 03:21:39;;;;;;;22.40;9.90;;;9.40;99.90;;;;;;5041544;28;20119;-78
2023/03/21 03:24:21;;;;;;;23.77;9.98;;;9.40;99.90;;;;;;5046763;28;20044;-78
2023/03/21 03:27:02;;;;;;;22.27;10.38;;;9.40;99.90;;;;;;5068160;28;20392;-78
2023/03/21 03:29:29;;;;;;;24.70;10.10;;;9.40;99.90;;;;;;5067780;28;20045;-78
2023/03/21 03:32:08;;;;;;;20.58;9.25;;;9.40;99.90;;;;;;5067171;28;20033;-78
2023/03/21 03:34:38;;;;;;;21.70;10.15;;;9.40;99.90;;;;;;5067326;28;20047;-78
2023/03/21 03:37:09;;;;;;;21.48;9.85;;;9.40;99.90;;;;;;5067372;28;20032;-78
2023/03/21 03:39:40;;;;;;;24.27;10.68;;;9.40;99.90;;;;;;5067452;28;20036;-78
2023/03/21 03:42:19;;;;;;;20.75;9.50;;;9.40;99.90;;;;;;5066909;28;20056;-78
2023/03/21 03:44:45;;;;;;;22.17;9.57;;;9.40;99.90;;;;;;5050888;28;20045;-78
2023/03/21 03:47:20;;;;;;;19.00;8.48;;;9.40;99.90;;;;;;5067001;28;20044;-78
2023/03/21 03:49:54;;;;;;;21.20;9.18;;;9.50;99.90;;;;;;5067648;28;20059;-78
2023/03/21 03:52:30;;;;;;;22.60;9.75;;;9.50;99.90;;;;;;5066760;28;20028;-78
2023/03/21 03:54:57;;;;;;;24.30;10.13;;;9.50;99.90;;;;;;5067150;28;20119;-78
2023/03/21 03:57:25;;;;;;;20.42;8.05;;;9.40;99.90;;;;;;5067140;28;20040;-78
2023/03/21 03:59:51;;;;;;;23.42;10.40;;;9.50;99.90;;;;;;5067265;28;20116;-78
2023/03/21 04:02:19;;;;;;;24.75;10.57;;;9.50;99.90;;;;;;5066963;28;20679;-78
2023/03/21 04:04:45;;;;;;;23.27;9.25;;;9.50;99.90;;;;;;5067057;28;20115;-78
2023/03/21 04:07:12;;;;;;;20.83;8.32;;;9.50;99.90;;;;;;5049885;28;20040;-78
2023/03/21 04:09:37;;;;;;;47.50;11.50;;;9.50;99.90;;;;;;5066688;28;20075;-78
2023/03/21 04:12:03;;;;;;;23.77;9.13;;;9.50;99.90;;;;;;5066525;28;20060;-78
2023/03/21 04:14:29;;;;;;;20.00;8.70;;;9.50;99.90;;;;;;5064503;28;20087;-78
2023/03/21 04:16:55;;;;;;;14.93;7.30;;;9.60;99.90;;;;;;5066799;28;20122;-78
2023/03/21 04:19:20;;;;;;;18.05;8.20;;;9.60;99.90;;;;;;5050350;28;20086;-78
2023/03/21 04:21:47;;;;;;;17.08;7.28;;;9.50;99.90;;;;;;5066988;28;20036;-78
2023/03/21 04:24:13;;;;;;;24.17;7.82;;;9.50;99.90;;;;;;5066679;28;20507;-78
2023/03/21 04:26:40;;;;;;;21.25;8.38;;;9.50;99.90;;;;;;5066860;28;20488;-78
2023/03/21 04:29:06;;;;;;;20.83;7.95;;;9.50;99.90;;;;;;5066646;28;20497;-77
2023/03/21 04:31:33;;;;;;;17.30;6.65;;;9.50;99.90;;;;;;5033439;28;20044;-78
2023/03/21 04:34:00;;;;;;;16.02;7.07;;;9.50;99.90;;;;;;5066869;28;20435;-78
2023/03/21 04:36:29;;;;;;;20.45;7.15;;;9.60;99.90;;;;;;5066710;28;20095;-78
2023/03/21 04:39:00;;;;;;;17.02;6.38;;;9.50;99.90;;;;;;5066812;28;20029;-78
2023/03/21 04:41:29;;;;;;;20.70;7.43;;;9.60;99.90;;;;;;5050071;28;20117;-78
2023/03/21 04:43:55;;;;;;;14.45;6.30;;;9.50;99.90;;;;;;5066683;28;20084;-78
2023/03/21 04:46:21;;;;;;;;;;;9.50;99.90;;;;;;5050540;28;20090;-78
2023/03/21 04:48:47;;;;;;;19.73;8.07;;;9.50;99.90;;;;;;5066468;28;20011;-78
2023/03/21 04:51:14;;;;;;;22.08;8.45;;;9.50;99.90;;;;;;5066450;28;21039;-78
2023/03/21 04:53:44;;;;;;;16.50;6.70;;;9.50;99.90;;;;;;5066797;28;20491;-78
2023/03/21 04:56:10;;;;;;;18.00;7.03;;;9.50;99.90;;;;;;5066677;28;20051;-78
2023/03/21 04:58:37;;;;;;;22.20;7.55;;;9.50;99.90;;;;;;5049920;28;20037;-78
2023/03/21 05:01:04;;;;;;;19.77;7.38;;;9.50;99.90;;;;;;5066078;28;20103;-78
2023/03/21 05:03:33;;;;;;;20.92;7.43;;;9.50;99.90;;;;;;5066541;28;20099;-78
2023/03/21 05:06:00;;;;;;;18.60;7.60;;;9.50;99.90;;;;;;5066586;28;20374;-78
2023/03/21 05:08:26;;;;;;;13.25;5.32;;;9.50;99.90;;;;;;5066221;28;20475;-78
2023/03/21 05:10:51;;;;;;;17.80;7.53;;;9.50;99.90;;;;;;5066541;28;20131;-78
2023/03/21 05:13:17;;;;;;;19.60;8.25;;;9.50;99.90;;;;;;5066300;28;20551;-79
2023/03/21 05:15:43;;;;;;;25.23;8.27;;;9.50;99.90;;;;;;5066379;28;20080;-79
2023/03/21 05:18:11;;;;;;;20.63;8.20;;;9.40;99.90;;;;;;5049177;28;20347;-79
2023/03/21 05:20:41;;;;;;;21.85;8.25;;;9.50;99.90;;;;;;5034380;28;20509;-78
2023/03/21 05:23:11;;;;;;;24.25;8.77;;;9.40;99.90;;;;;;5069720;28;20123;-79
2023/03/21 05:25:38;;;;;;;23.92;7.43;;;9.40;99.90;;;;;;5069800;28;20040;-83
2023/03/21 05:28:06;;;;;;;21.85;8.82;;;9.50;99.90;;;;;;5037960;28;20033;-83
2023/03/21 05:30:32;;;;;;;26.65;8.57;;;9.40;99.90;;;;;;5071201;28;20044;-82
2023/03/21 05:32:59;;;;;;;22.05;7.60;;;9.40;99.90;;;;;;5055364;28;20108;-83
2023/03/21 05:35:25;;;;;;;23.92;8.80;;;9.40;99.90;;;;;;5056358;28;20041;-83
2023/03/21 05:37:51;;;;;;;27.67;9.90;;;9.50;99.90;;;;;;5056515;28;20115;-83
2023/03/21 05:40:18;;;;;;;30.35;9.20;;;9.50;99.90;;;;;;5071660;28;20037;-82
2023/03/21 05:42:45;;;;;;;19.55;8.40;;;9.40;99.90;;;;;;4983609;28;1099556;-83
2023/03/21 05:45:12;;;;;;;29.23;9.15;;;9.40;99.90;;;;;;5072660;28;20074;-81
2023/03/21 05:47:38;;;;;;;28.80;9.73;;;9.40;99.90;;;;;;5074454;28;20124;-85
2023/03/21 05:50:04;;;;;;;30.40;9.20;;;9.40;99.90;;;;;;5074174;28;20120;-83
2023/03/21 05:52:30;;;;;;;20.20;7.60;;;9.30;99.90;;;;;;5073487;28;20051;-83
2023/03/21 05:54:56;;;;;;;23.58;8.48;;;9.30;99.90;;;;;;5056959;28;20087;-84
2023/03/21 05:57:21;;;;;;;21.00;7.57;;;9.30;99.90;;;;;;5074190;28;20063;-88
2023/03/21 05:59:47;;;;;;;21.85;7.28;;;9.40;99.90;;;;;;5074807;28;20040;-87
2023/03/21 06:02:14;;;;;;;17.60;6.63;;;9.40;99.90;;;;;;5057732;28;20048;-87
2023/03/21 06:04:40;;;;;;;19.77;7.32;;;9.40;99.90;;;;;;5073155;28;20302;-87
2023/03/21 06:07:05;;;;;;;16.60;7.18;;;9.40;99.90;;;;;;5073224;28;20484;-87
2023/03/21 06:09:32;;;;;;;17.97;6.30;;;9.40;99.90;;;;;;5072364;28;20041;-87
2023/03/21 06:11:59;;;;;;;19.70;7.18;;;9.40;99.90;;;;;;5055955;28;20044;-86
2023/03/21 06:14:25;;;;;;;18.30;7.30;;;9.40;99.90;;;;;;5056052;28;20420;-87
2023/03/21 06:16:52;;;;;;;19.55;8.18;;;9.40;99.90;;;;;;5056226;28;20120;-87
2023/03/21 06:19:20;;;;;;;15.32;6.40;;;9.50;99.90;;;;;;5072521;28;20043;-87
2023/03/21 06:21:46;;;;;;;21.65;8.30;;;9.40;99.90;;;;;;5072895;28;20504;-87
2023/03/21 06:24:12;;;;;;;19.77;7.40;;;9.40;99.90;;;;;;5072858;28;20074;-87
2023/03/21 06:26:38;;;;;;;19.30;7.57;;;9.50;99.90;;;;;;5039953;28;20041;-87
2023/03/21 06:29:04;;;;;;;19.92;7.85;;;9.50;99.90;;;;;;5056341;28;20040;-87
2023/03/21 06:31:30;;;;;;;17.45;7.22;;;9.50;99.90;;;;;;5069806;28;20028;-87
2023/03/21 06:33:56;;;;;;;18.17;7.15;;;9.50;99.90;;;;;;5056507;28;20131;-87
2023/03/21 06:36:22;;;;;;;19.70;7.30;;;9.50;99.90;;;;;;5072398;28;20028;-87
2023/03/21 06:38:47;;;;;;;19.63;7.25;;;9.50;99.90;;;;;;5072146;28;20086;-87
2023/03/21 06:41:14;;;;;;;19.25;7.95;;;9.50;99.90;;;;;;5055789;28;20411;-87
2023/03/21 06:43:40;;;;;;;14.82;6.47;;;9.50;99.90;;;;;;5055728;28;20040;-87
2023/03/21 06:46:06;;;;;;;19.67;7.68;;;9.60;99.90;;;;;;5055968;28;20423;-88
2023/03/21 06:48:32;;;;;;;14.38;6.50;;;9.60;99.90;;;;;;5071442;28;20072;-87
2023/03/21 06:50:57;;;;;;;17.25;7.53;;;9.60;99.90;;;;;;5072510;28;20037;-86
2023/03/21 06:53:26;;;;;;;17.88;7.22;;;9.60;99.90;;;;;;5071869;28;20112;-87
2023/03/21 06:55:53;;;;;;;15.70;7.32;;;9.60;99.90;;;;;;5072835;28;20124;-87
2023/03/21 06:58:20;;;;;;;17.60;7.75;;;9.60;99.90;;;;;;5071944;28;20036;-87
2023/03/21 07:00:46;;;;;;;19.00;8.60;;;9.60;99.90;;;;;;5069904;28;20115;-87
2023/03/21 07:03:12;;;;;;;18.13;7.50;;;9.60;99.90;;;;;;5055542;28;20100;-87
2023/03/21 07:05:39;;;;;;;18.27;6.78;;;9.60;99.90;;;;;;5071793;28;20052;-87
2023/03/21 07:08:09;;;;;;;22.02;8.32;;;9.70;99.90;;;;;;5055743;28;20059;-87
2023/03/21 07:10:38;;;;;;;18.25;7.60;;;9.70;99.90;;;;;;5086449;28;20135;-86
2023/03/21 07:13:04;;;;;;;16.70;6.82;;;9.70;99.90;;;;;;5071320;28;20519;-87
2023/03/21 07:15:32;;;;;;;19.65;7.53;;;9.70;99.90;;;;;;5054860;28;20037;-87
2023/03/21 07:17:57;;;;;;;17.38;7.25;;;9.70;99.90;;;;;;5073115;28;20381;-87
2023/03/21 07:20:25;;;;;;;14.88;7.30;;;9.70;99.90;;;;;;5038759;28;20037;-87
2023/03/21 07:22:51;;;;;;;15.27;7.07;;;9.70;99.90;;;;;;5071539;28;20062;-87
2023/03/21 07:25:18;;;;;;;16.17;7.00;;;9.70;99.90;;;;;;5054000;28;20123;-87
2023/03/21 07:27:45;;;;;;;16.98;7.28;;;9.80;99.90;;;;;;5071399;28;20044;-87
2023/03/21 07:30:11;;;;;;;;;;;9.80;99.90;;;;;;5038451;28;20032;-86
2023/03/21 07:32:37;;;;;;;17.75;7.00;;;9.80;99.90;;;;;;5070587;28;19960;-87
2023/03/21 07:35:03;;;;;;;13.40;6.00;;;9.80;99.90;;;;;;5068963;28;20116;-87
2023/03/21 07:37:29;;;;;;;15.82;6.88;;;9.80;99.90;;;;;;5070947;28;20044;-87
2023/03/21 07:39:55;;;;;;;13.53;6.73;;;9.80;99.90;;;;;;5038333;28;20036;-87
2023/03/21 07:42:20;;;;;;;11.57;5.83;;;9.90;99.90;;;;;;5054700;28;20286;-87
2023/03/21 07:44:46;;;;;;;12.93;6.13;;;9.90;99.90;;;;;;5070278;28;20787;-87
2023/03/21 07:47:12;;;;;;;8.65;4.28;;;9.90;99.90;;;;;;5072055;28;20630;-87
2023/03/21 07:49:37;;;;;;;8.93;4.38;;;9.90;99.90;;;;;;5072710;28;20119;-88
2023/03/21 07:52:05;;;;;;;8.63;4.50;;;9.90;99.90;;;;;;5073080;28;20041;-88
2023/03/21 07:54:31;;;;;;;8.23;4.70;;;9.90;99.90;;;;;;5053456;28;20119;-88
2023/03/21 07:56:57;;;;;;;10.73;5.10;;;10.00;99.90;;;;;;5072553;28;20059;-88
2023/03/21 07:59:22;;;;;;;10.18;5.35;;;10.00;99.90;;;;;;5072259;28;20036;-87
2023/03/21 08:01:48;;;;;;;9.65;4.30;;;9.90;99.90;;;;;;5071847;28;20109;-88
2023/03/21 08:04:14;;;;;;;11.05;5.53;;;9.90;99.90;;;;;;5070831;28;20487;-88
2023/03/21 08:06:40;;;;;;;9.13;4.90;;;9.90;99.90;;;;;;5054363;28;20044;-88
2023/03/21 08:09:06;;;;;;;8.90;4.25;;;10.00;99.90;;;;;;5071460;28;20044;-88
2023/03/21 08:11:31;;;;;;;9.07;4.85;;;10.00;99.90;;;;;;5070704;28;20389;-88
2023/03/21 08:13:58;;;;;;;9.00;4.57;;;10.00;99.90;;;;;;5070698;28;20541;-88
2023/03/21 08:16:24;;;;;;;6.30;3.70;;;10.00;99.90;;;;;;5053532;28;20105;-88
2023/03/21 08:18:50;;;;;;;9.30;4.60;;;10.10;99.90;;;;;;5037457;28;20419;-88
2023/03/21 08:21:16;;;;;;;8.70;4.60;;;10.00;99.90;;;;;;5021318;28;20491;-88
2023/03/21 08:23:41;;;;;;;7.85;4.47;;;10.00;99.90;;;;;;5053903;28;20083;-88
2023/03/21 08:26:08;;;;;;;7.57;4.10;;;10.00;99.90;;;;;;5054030;28;20044;-87
2023/03/21 08:28:35;;;;;;;8.68;4.40;;;10.00;99.90;;;;;;5070253;28;20374;-88
2023/03/21 08:31:06;;;;;;;7.20;4.18;;;10.10;99.90;;;;;;5070923;28;20139;-87
2023/03/21 08:33:32;;;;;;;5.93;3.50;;;10.00;99.90;;;;;;5053325;28;20119;-87
2023/03/21 08:36:01;;;;;;;7.95;3.88;;;10.00;99.90;;;;;;5070503;28;20080;-87
2023/03/21 08:38:32;;;;;;;8.32;4.15;;;10.10;99.90;;;;;;5070183;28;20044;-87
2023/03/21 08:40:59;;;;;;;6.57;3.85;;;10.00;99.90;;;;;;5054105;28;20041;-87
2023/03/21 08:43:25;;;;;;;7.20;3.72;;;10.10;99.90;;;;;;5070009;28;20072;-86
2023/03/21 08:45:51;;;;;;;6.45;3.40;;;10.10;99.90;;;;;;5071021;28;20048;-87
2023/03/21 08:48:18;;;;;;;6.20;3.58;;;10.00;99.90;;;;;;5070335;28;20032;-87
2023/03/21 08:50:44;;;;;;;8.15;3.97;;;10.10;99.90;;;;;;5069768;28;20036;-86
2023/03/21 08:53:09;;;;;;;6.22;3.33;;;10.10;99.90;;;;;;5053992;28;20119;-87
2023/03/21 08:55:35;;;;;;;7.15;3.60;;;10.00;99.90;;;;;;5055772;28;20111;-86
2023/03/21 08:58:01;;;;;;;6.40;3.58;;;10.00;99.90;;;;;;5073756;28;20817;-87
2023/03/21 09:00:27;;;;;;;6.15;3.72;;;10.00;99.90;;;;;;5056736;28;20051;-85
2023/03/21 09:02:54;;;;;;;7.22;4.28;;;10.00;99.90;;;;;;5074731;28;20060;-87
2023/03/21 09:05:21;;;;;;;9.38;4.50;;;10.00;99.90;;;;;;5057531;28;20052;-85
2023/03/21 09:07:48;;;;;;;8.25;4.45;;;10.10;99.90;;;;;;5056578;28;20522;-87
2023/03/21 09:10:20;;;;;;;7.85;4.47;;;10.10;99.90;;;;;;5056361;28;20123;-86
2023/03/21 09:12:47;;;;;;;6.63;3.97;;;10.00;99.90;;;;;;5072750;28;20048;-86
2023/03/21 09:15:13;;;;;;;13.90;6.03;;;10.10;99.90;;;;;;5057303;28;20036;-86
2023/03/21 09:17:42;;;;;;;12.80;6.45;;;10.00;99.90;;;;;;5056624;28;20043;-86
2023/03/21 09:20:19;;;;;;;14.30;5.93;;;10.10;99.90;;;;;;5073758;28;20070;-86
2023/03/21 09:22:47;;;;;;;11.38;5.43;;;10.00;99.90;;;;;;5071656;28;20123;-85
2023/03/21 09:25:15;;;;;;;14.65;6.82;;;10.00;99.90;;;;;;5072927;28;20062;-85
2023/03/21 09:27:43;;;;;;;13.50;5.70;;;9.90;99.90;;;;;;5072747;28;20048;-84
2023/03/21 09:30:10;;;;;;;16.52;7.35;;;10.00;99.90;;;;;;5073120;28;20051;-84
2023/03/21 09:32:35;;;;;;;;;;;10.00;99.90;;;;;;5073324;28;20128;-84
2023/03/21 09:35:05;;;;;;;13.63;6.75;;;10.00;99.90;;;;;;5073099;28;19923;-85
2023/03/21 09:37:32;;;;;;;15.77;8.27;;;10.00;99.90;;;;;;5070587;28;20040;-85
2023/03/21 09:39:58;;;;;;;18.40;8.88;;;9.90;99.90;;;;;;5074020;28;20036;-85
2023/03/21 09:42:44;;;;;;;18.52;8.48;;;9.90;99.90;;;;;;5056784;28;20032;-85
2023/03/21 09:45:19;;;;;;;17.05;8.90;;;9.90;99.90;;;;;;5070603;28;20141;-85
2023/03/21 09:47:55;;;;;;;14.30;8.38;;;10.00;99.90;;;;;;5056216;28;20531;-85
2023/03/21 09:50:51;;;;;;;14.20;7.72;;;10.00;99.90;;;;;;5056718;28;20067;-85
2023/03/21 09:53:24;;;;;;;13.02;7.55;;;10.00;99.90;;;;;;5043073;28;20408;-85
2023/03/21 09:55:52;;;;;;;13.73;7.28;;;10.10;99.90;;;;;;5070979;28;20518;-85
2023/03/21 09:58:41;;;;;;;15.60;7.25;;;10.00;99.90;;;;;;5056464;28;20117;-85
2023/03/21 10:01:27;;;;;;;18.95;9.80;;;10.00;99.90;;;;;;5104385;28;20047;-85
2023/03/21 10:03:55;;;;;;;15.32;8.57;;;10.00;99.90;;;;;;5105015;28;20488;-85
2023/03/21 10:06:27;;;;;;;19.35;9.00;;;10.00;99.90;;;;;;5072151;28;20403;-85
2023/03/21 10:09:00;;;;;;;16.58;9.18;;;10.00;99.90;;;;;;5072133;28;20124;-85
2023/03/21 10:11:40;;;;;;;17.60;10.30;;;10.00;99.90;;;;;;5070271;28;20033;-85
2023/03/21 10:14:24;;;;;;;20.85;9.70;;;9.90;99.90;;;;;;5056624;28;20433;-85
2023/03/21 10:17:22;;;;;;;19.27;10.05;;;9.90;99.90;;;;;;5089201;28;20044;-85
2023/03/21 10:19:55;;;;;;;18.92;9.75;;;9.90;99.90;;;;;;5040580;28;20048;-85
2023/03/21 10:22:20;;;;;;;23.23;10.82;;;9.90;99.90;;;;;;5072593;28;20076;-84
2023/03/21 10:24:46;;;;;;;18.50;8.97;;;9.90;99.90;;;;;;5071473;28;20581;-84
2023/03/21 10:27:13;;;;;;;21.52;11.35;;;10.00;99.90;;;;;;5072029;28;20294;-84
2023/03/21 10:29:44;;;;;;;23.70;12.23;;;9.90;99.90;;;;;;5072142;28;20059;-84
2023/03/21 10:32:12;;;;;;;25.98;12.30;;;9.90;99.90;;;;;;5072365;28;20049;-84
2023/03/21 10:34:43;;;;;;;23.83;12.25;;;9.80;99.90;;;;;;5072212;28;20043;-84
2023/03/21 10:37:11;;;;;;;20.88;11.20;;;9.80;99.90;;;;;;5072358;28;20029;-85
2023/03/21 10:39:38;;;;;;;16.58;7.93;;;9.90;99.90;;;;;;5071230;28;20036;-85
2023/03/21 10:42:04;;;;;;;19.60;9.25;;;10.00;99.90;;;;;;5055043;28;20032;-85
2023/03/21 10:44:35;;;;;;;22.63;11.38;;;10.00;99.90;;;;;;5071293;28;20052;-85
2023/03/21 10:47:07;;;;;;;22.23;11.77;;;10.00;99.90;;;;;;5086683;28;20099;-85
2023/03/21 10:49:34;;;;;;;22.95;11.30;;;10.00;99.90;;;;;;5071668;28;20052;-85
2023/03/21 10:52:10;;;;;;;19.85;9.52;;;10.00;99.90;;;;;;5069631;28;20385;-85
2023/03/21 10:54:36;;;;;;;22.50;10.73;;;10.10;99.90;;;;;;5055477;28;20036;-85
2023/03/21 10:57:21;;;;;;;26.15;11.40;;;10.20;99.90;;;;;;5071849;28;20097;-85
2023/03/21 10:59:52;;;;;;;21.58;10.25;;;10.30;99.90;;;;;;5069678;28;20293;-85
2023/03/21 11:02:39;;;;;;;19.00;9.25;;;10.20;99.90;;;;;;5071981;28;20088;-85
2023/03/21 11:05:13;;;;;;;18.20;8.40;;;10.30;99.90;;;;;;5070022;28;20040;-85
2023/03/21 11:07:40;;;;;;;21.02;8.80;;;10.40;99.90;;;;;;5071462;28;20045;-86
2023/03/21 11:10:35;;;;;;;19.13;9.82;;;10.50;99.90;;;;;;5055136;28;20044;-86
2023/03/21 11:13:06;;;;;;;17.98;8.85;;;10.60;99.90;;;;;;5069384;28;20064;-86
2023/03/21 11:15:45;;;;;;;18.58;9.18;;;10.60;99.90;;;;;;5071343;28;20058;-86
2023/03/21 11:18:18;;;;;;;13.45;7.60;;;10.70;99.90;;;;;;5086997;28;20059;-86
2023/03/21 11:21:01;;;;;;;19.15;8.73;;;10.70;99.90;;;;;;5069525;28;20117;-86
2023/03/21 11:23:34;;;;;;;18.63;8.77;;;10.90;99.90;;;;;;5070617;28;20036;-86
2023/03/21 11:26:01;;;;;;;19.33;7.97;;;10.90;99.90;;;;;;5052267;28;20048;-86
2023/03/21 11:28:39;;;;;;;17.88;7.97;;;11.00;99.90;;;;;;5071743;28;20051;-86
2023/03/21 11:31:08;;;;;;;16.25;7.63;;;11.10;99.90;;;;;;5069396;28;20052;-86
2023/03/21 11:33:55;;;;;;;13.85;7.30;;;11.10;99.90;;;;;;5071514;28;20040;-86
2023/03/21 11:36:21;;;;;;;15.18;7.88;;;11.10;99.90;;;;;;5055032;28;20040;-86
2023/03/21 11:38:55;;;;;;;16.27;6.77;;;11.20;99.90;;;;;;5070928;28;20032;-86
2023/03/21 11:41:32;;;;;;;10.10;5.15;;;11.30;99.90;;;;;;5054818;28;20116;-86
2023/03/21 11:44:00;;;;;;;16.40;8.07;;;11.30;99.90;;;;;;5071859;28;20052;-86
2023/03/21 11:46:30;;;;;;;15.43;7.68;;;11.20;99.90;;;;;;5069202;28;20036;-86
2023/03/21 11:48:58;;;;;;;14.43;6.60;;;11.30;99.90;;;;;;5071164;28;20119;-86
2023/03/21 11:52:05;;;;;;;11.85;6.40;;;11.20;99.90;;;;;;5071052;28;20033;-86
2023/03/21 11:54:42;;;;;;;19.10;8.15;;;11.30;99.90;;;;;;5052726;28;20404;-86
2023/03/21 11:57:14;;;;;;;;;;;11.30;99.90;;;;;;5066859;28;20396;-86
2023/03/21 11:59:58;;;;;;;17.50;6.20;;;11.30;99.90;;;;;;5053882;28;19927;-86
2023/03/21 12:02:42;;;;;;;16.13;6.35;;;11.50;99.90;;;;;;5068141;28;20052;-85
2023/03/21 12:05:20;;;;;;;25.00;5.90;;;11.50;99.90;;;;;;5052435;28;20056;-86
2023/03/21 12:08:01;;;;;;;11.65;5.45;;;11.50;99.90;;;;;;5049912;28;20036;-86
2023/03/21 12:10:42;;;;;;;12.77;7.00;;;11.50;99.90;;;;;;5057131;28;20064;-86
2023/03/21 12:13:33;;;;;;;12.55;6.05;;;11.40;99.90;;;;;;5067202;28;20037;-86
2023/03/21 12:16:22;;;;;;;14.32;6.88;;;11.30;99.90;;;;;;5070960;28;20078;-85
2023/03/21 12:18:56;;;;;;;13.57;6.00;;;11.30;99.90;;;;;;5070593;28;20043;-86
2023/03/21 12:21:50;;;;;;;13.60;5.55;;;11.30;99.90;;;;;;5067040;28;20045;-86
2023/03/21 12:24:34;;;;;;;10.77;5.22;;;11.30;99.90;;;;;;5047505;28;20033;-86
2023/03/21 12:27:21;;;;;;;10.70;5.25;;;11.30;99.90;;;;;;5069542;28;20180;-86
2023/03/21 12:29:58;;;;;;;9.45;5.60;;;11.30;99.90;;;;;;5054210;28;20756;-85
2023/03/21 12:32:39;;;;;;;11.98;5.35;;;11.30;99.90;;;;;;5070216;28;20037;-86
2023/03/21 12:35:32;;;;;;;8.23;4.82;;;11.40;99.90;;;;;;5070134;28;20040;-86
2023/03/21 12:38:00;;;;;;;9.70;6.07;;;11.40;99.90;;;;;;5103645;28;20056;-86
2023/03/21 12:40:39;;;;;;;12.63;5.50;;;11.30;99.90;;;;;;5055138;28;20038;-86
2023/03/21 12:43:13;;;;;;;11.77;5.90;;;11.30;99.90;;;;;;5069910;28;20052;-86
2023/03/21 12:45:43;;;;;;;11.55;5.32;;;11.30;99.90;;;;;;5069597;28;20056;-86
2023/03/21 12:48:29;;;;;;;11.80;5.00;;;11.30;99.90;;;;;;5070806;28;20056;-86
2023/03/21 12:50:56;;;;;;;11.93;6.05;;;11.30;99.90;;;;;;5082204;28;20036;-86
2023/03/21 12:53:45;;;;;;;9.80;5.03;;;11.20;99.90;;;;;;5069832;28;20041;-86
2023/03/21 12:56:19;;;;;;;15.82;6.97;;;11.20;99.90;;;;;;5066037;28;20055;-86
2023/03/21 12:58:57;;;;;;;14.55;6.75;;;11.20;99.90;;;;;;5068434;28;20181;-86
2023/03/21 13:01:24;;;;;;;8.63;5.85;;;11.30;99.90;;;;;;5068901;28;20032;-85
2023/03/21 13:04:26;;;;;;;9.55;5.00;;;11.30;99.90;;;;;;5068173;28;20067;-85